sensor_id;sensor_type;location;lat;lon;timestamp;pressure;altitude;pressure_sealevel;temperature;humidity
31299;BME280;17927;52.350;13.402;2022-10-17T00:00:51;101847.69;;;18.06;57.15
31299;BME280;17927;52.350;13.402;2022-10-17T00:03:17;101843.94;;;18.07;57.06
31299;BME280;17927;52.350;13.402;2022-10-17T00:05:45;101848.41;;;18.08;57.05
31299;BME280;17927;52.350;13.402;2022-10-17T00:08:11;101851.97;;;18.08;57.02
31299;BME280;17927;52.350;13.402;2022-10-17T00:10:38;101849.09;;;18.10;57.32
31299;BME280;17927;52.350;13.402;2022-10-17T00:13:03;101850.13;;;18.09;57.41
31299;BME280;17927;52.350;13.402;2022-10-17T00:15:29;101846.34;;;18.10;57.31
31299;BME280;17927;52.350;13.402;2022-10-17T00:17:54;101836.59;;;18.07;57.49
31299;BME280;17927;52.350;13.402;2022-10-17T00:20:19;101821.06;;;18.08;57.61
31299;BME280;17927;52.350;13.402;2022-10-17T00:22:44;101822.78;;;18.09;57.51
31299;BME280;17927;52.350;13.402;2022-10-17T00:25:10;101818.31;;;18.08;57.43
31299;BME280;17927;52.350;13.402;2022-10-17T00:27:37;101829.94;;;18.10;57.53
31299;BME280;17927;52.350;13.402;2022-10-17T00:30:04;101830.97;;;18.09;57.88
31299;BME280;17927;52.350;13.402;2022-10-17T00:32:30;101840.19;;;18.08;57.59
31299;BME280;17927;52.350;13.402;2022-10-17T00:34:56;101839.50;;;18.06;57.94
31299;BME280;17927;52.350;13.402;2022-10-17T00:37:22;101836.94;;;18.04;57.70
31299;BME280;17927;52.350;13.402;2022-10-17T00:39:47;101826.34;;;18.01;57.81
31299;BME280;17927;52.350;13.402;2022-10-17T00:42:12;101829.22;;;18.00;58.14
31299;BME280;17927;52.350;13.402;2022-10-17T00:47:10;101835.69;;;17.99;58.11
31299;BME280;17927;52.350;13.402;2022-10-17T00:49:38;101834.03;;;17.98;58.30
31299;BME280;17927;52.350;13.402;2022-10-17T00:52:07;101825.94;;;17.96;58.43
31299;BME280;17927;52.350;13.402;2022-10-17T00:54:36;101831.56;;;17.94;58.49
31299;BME280;17927;52.350;13.402;2022-10-17T00:57:03;101830.56;;;17.95;58.46
31299;BME280;17927;52.350;13.402;2022-10-17T00:59:29;101835.16;;;17.95;58.45
31299;BME280;17927;52.350;13.402;2022-10-17T01:02:02;101828.84;;;17.94;58.75
31299;BME280;17927;52.350;13.402;2022-10-17T01:04:28;101837.88;;;17.95;59.16
31299;BME280;17927;52.350;13.402;2022-10-17T01:06:53;101841.50;;;17.95;59.16
31299;BME280;17927;52.350;13.402;2022-10-17T01:09:18;101836.03;;;17.95;58.98
31299;BME280;17927;52.350;13.402;2022-10-17T01:14:40;101835.34;;;17.93;59.17
31299;BME280;17927;52.350;13.402;2022-10-17T01:17:17;101832.75;;;17.92;59.64
31299;BME280;17927;52.350;13.402;2022-10-17T01:20:05;101822.69;;;17.92;59.71
31299;BME280;17927;52.350;13.402;2022-10-17T01:22:45;101827.47;;;17.90;59.64
31299;BME280;17927;52.350;13.402;2022-10-17T01:25:30;101828.16;;;17.92;59.27
31299;BME280;17927;52.350;13.402;2022-10-17T01:28:27;101821.16;;;17.90;59.34
31299;BME280;17927;52.350;13.402;2022-10-17T01:31:13;101817.03;;;17.86;59.25
31299;BME280;17927;52.350;13.402;2022-10-17T01:33:44;101817.88;;;17.86;59.42
31299;BME280;17927;52.350;13.402;2022-10-17T01:36:14;101814.28;;;17.86;59.36
31299;BME280;17927;52.350;13.402;2022-10-17T01:38:48;101805.22;;;17.85;59.57
31299;BME280;17927;52.350;13.402;2022-10-17T01:44:12;101800.25;;;17.80;59.74
31299;BME280;17927;52.350;13.402;2022-10-17T01:46:42;101804.00;;;17.79;59.86
31299;BME280;17927;52.350;13.402;2022-10-17T01:49:10;101798.72;;;17.78;59.78
31299;BME280;17927;52.350;13.402;2022-10-17T01:52:08;101807.75;;;17.78;59.77
31299;BME280;17927;52.350;13.402;2022-10-17T01:54:44;101809.97;;;17.75;60.09
31299;BME280;17927;52.350;13.402;2022-10-17T01:57:19;101808.25;;;17.74;59.88
31299;BME280;17927;52.350;13.402;2022-10-17T01:59:47;101809.13;;;17.74;59.93
31299;BME280;17927;52.350;13.402;2022-10-17T02:02:16;101818.19;;;17.75;60.01
31299;BME280;17927;52.350;13.402;2022-10-17T02:04:42;101809.28;;;17.73;60.20
31299;BME280;17927;52.350;13.402;2022-10-17T02:07:08;101809.28;;;17.73;60.28
31299;BME280;17927;52.350;13.402;2022-10-17T02:09:35;101809.28;;;17.73;60.35
31299;BME280;17927;52.350;13.402;2022-10-17T02:12:20;101813.91;;;17.72;60.29
31299;BME280;17927;52.350;13.402;2022-10-17T02:15:07;101814.22;;;17.69;60.32
31299;BME280;17927;52.350;13.402;2022-10-17T02:17:56;101816.09;;;17.69;60.37
31299;BME280;17927;52.350;13.402;2022-10-17T02:20:36;101800.19;;;17.64;60.58
31299;BME280;17927;52.350;13.402;2022-10-17T02:23:11;101802.78;;;17.65;60.75
31299;BME280;17927;52.350;13.402;2022-10-17T02:25:45;101805.50;;;17.65;60.88
31299;BME280;17927;52.350;13.402;2022-10-17T02:28:34;101808.25;;;17.65;61.02
31299;BME280;17927;52.350;13.402;2022-10-17T02:31:10;101805.84;;;17.62;60.99
31299;BME280;17927;52.350;13.402;2022-10-17T02:33:42;101809.25;;;17.64;60.71
31299;BME280;17927;52.350;13.402;2022-10-17T02:36:14;101806.53;;;17.64;60.83
31299;BME280;17927;52.350;13.402;2022-10-17T02:38:42;101808.25;;;17.65;60.94
31299;BME280;17927;52.350;13.402;2022-10-17T02:41:10;101801.75;;;17.67;60.84
31299;BME280;17927;52.350;13.402;2022-10-17T02:43:38;101795.44;;;17.66;61.12
31299;BME280;17927;52.350;13.402;2022-10-17T02:46:04;101789.78;;;17.68;61.19
31299;BME280;17927;52.350;13.402;2022-10-17T02:48:39;101798.69;;;17.70;61.42
31299;BME280;17927;52.350;13.402;2022-10-17T02:54:11;101788.94;;;17.67;61.34
31299;BME280;17927;52.350;13.402;2022-10-17T02:56:43;101775.47;;;17.65;61.64
31299;BME280;17927;52.350;13.402;2022-10-17T02:59:11;101784.19;;;17.69;61.45
31299;BME280;17927;52.350;13.402;2022-10-17T03:01:38;101792.19;;;17.71;61.65
31299;BME280;17927;52.350;13.402;2022-10-17T03:04:12;101789.31;;;17.72;61.82
31299;BME280;17927;52.350;13.402;2022-10-17T03:06:39;101792.75;;;17.74;61.70
31299;BME280;17927;52.350;13.402;2022-10-17T03:09:05;101791.53;;;17.77;61.95
31299;BME280;17927;52.350;13.402;2022-10-17T03:11:31;101805.91;;;17.79;62.10
31299;BME280;17927;52.350;13.402;2022-10-17T03:13:56;101794.97;;;17.79;62.20
31299;BME280;17927;52.350;13.402;2022-10-17T03:16:22;101805.59;;;17.82;62.21
31299;BME280;17927;52.350;13.402;2022-10-17T03:18:47;101806.25;;;17.84;62.04
31299;BME280;17927;52.350;13.402;2022-10-17T03:21:12;101799.59;;;17.87;62.36
31299;BME280;17927;52.350;13.402;2022-10-17T03:23:37;101800.31;;;17.89;62.02
31299;BME280;17927;52.350;13.402;2022-10-17T03:26:04;101800.97;;;17.91;62.35
31299;BME280;17927;52.350;13.402;2022-10-17T03:28:29;101808.16;;;17.92;61.99
31299;BME280;17927;52.350;13.402;2022-10-17T03:30:55;101805.09;;;17.95;62.41
31299;BME280;17927;52.350;13.402;2022-10-17T03:33:20;101797.56;;;17.97;62.54
31299;BME280;17927;52.350;13.402;2022-10-17T03:35:45;101782.09;;;17.98;62.17
31299;BME280;17927;52.350;13.402;2022-10-17T03:38:10;101784.81;;;17.98;62.61
31299;BME280;17927;52.350;13.402;2022-10-17T03:40:36;101778.44;;;17.97;62.34
31299;BME280;17927;52.350;13.402;2022-10-17T03:43:01;101783.75;;;17.99;62.44
31299;BME280;17927;52.350;13.402;2022-10-17T03:45:26;101779.34;;;17.98;62.47
31299;BME280;17927;52.350;13.402;2022-10-17T03:47:51;101777.59;;;17.96;62.27
31299;BME280;17927;52.350;13.402;2022-10-17T03:50:17;101769.41;;;17.96;62.23
31299;BME280;17927;52.350;13.402;2022-10-17T03:52:46;101781.34;;;17.95;62.46
31299;BME280;17927;52.350;13.402;2022-10-17T03:55:12;101769.41;;;17.96;62.30
31299;BME280;17927;52.350;13.402;2022-10-17T03:57:37;101769.56;;;17.95;62.40
31299;BME280;17927;52.350;13.402;2022-10-17T04:00:03;101766.81;;;17.95;62.71
31299;BME280;17927;52.350;13.402;2022-10-17T04:02:29;101770.41;;;17.95;62.58
31299;BME280;17927;52.350;13.402;2022-10-17T04:04:54;101771.44;;;17.94;62.57
31299;BME280;17927;52.350;13.402;2022-10-17T04:07:19;101767.00;;;17.93;62.39
31299;BME280;17927;52.350;13.402;2022-10-17T04:09:45;101771.59;;;17.93;62.66
31299;BME280;17927;52.350;13.402;2022-10-17T04:12:10;101758.09;;;17.91;62.63
31299;BME280;17927;52.350;13.402;2022-10-17T04:14:36;101762.69;;;17.91;62.40
31299;BME280;17927;52.350;13.402;2022-10-17T04:17:02;101757.41;;;17.89;62.54
31299;BME280;17927;52.350;13.402;2022-10-17T04:19:27;101765.63;;;17.89;62.75
31299;BME280;17927;52.350;13.402;2022-10-17T04:21:52;101764.91;;;17.87;62.76
31299;BME280;17927;52.350;13.402;2022-10-17T04:24:17;101758.63;;;17.87;62.71
31299;BME280;17927;52.350;13.402;2022-10-17T04:26:43;101766.13;;;17.85;62.75
31299;BME280;17927;52.350;13.402;2022-10-17T04:29:08;101756.22;;;17.84;62.73
31299;BME280;17927;52.350;13.402;2022-10-17T04:31:33;101762.50;;;17.84;62.73
31299;BME280;17927;52.350;13.402;2022-10-17T04:33:58;101757.03;;;17.84;62.79
31299;BME280;17927;52.350;13.402;2022-10-17T04:36:24;101763.38;;;17.85;62.61
31299;BME280;17927;52.350;13.402;2022-10-17T04:38:49;101761.50;;;17.85;62.78
31299;BME280;17927;52.350;13.402;2022-10-17T04:41:17;101768.84;;;17.85;62.67
31299;BME280;17927;52.350;13.402;2022-10-17T04:43:42;101761.50;;;17.85;62.89
31299;BME280;17927;52.350;13.402;2022-10-17T04:46:10;101762.38;;;17.86;62.94
31299;BME280;17927;52.350;13.402;2022-10-17T04:48:37;101758.75;;;17.85;63.03
31299;BME280;17927;52.350;13.402;2022-10-17T04:51:08;101761.50;;;17.85;63.24
31299;BME280;17927;52.350;13.402;2022-10-17T04:53:36;101763.53;;;17.83;62.94
31299;BME280;17927;52.350;13.402;2022-10-17T04:56:07;101765.44;;;17.83;63.29
31299;BME280;17927;52.350;13.402;2022-10-17T04:58:33;101757.41;;;17.81;62.88
31299;BME280;17927;52.350;13.402;2022-10-17T05:00:58;101757.56;;;17.79;63.14
31299;BME280;17927;52.350;13.402;2022-10-17T05:03:23;101764.03;;;17.78;63.18
31299;BME280;17927;52.350;13.402;2022-10-17T05:05:48;101764.03;;;17.78;63.49
31299;BME280;17927;52.350;13.402;2022-10-17T05:08:14;101757.88;;;17.76;63.58
31299;BME280;17927;52.350;13.402;2022-10-17T05:10:41;101766.06;;;17.76;63.80
31299;BME280;17927;52.350;13.402;2022-10-17T05:13:07;101764.38;;;17.75;63.73
31299;BME280;17927;52.350;13.402;2022-10-17T05:15:33;101773.44;;;17.76;63.57
31299;BME280;17927;52.350;13.402;2022-10-17T05:17:58;101760.63;;;17.76;64.03
31299;BME280;17927;52.350;13.402;2022-10-17T05:20:23;101780.63;;;17.77;63.41
31299;BME280;17927;52.350;13.402;2022-10-17T05:22:49;101776.16;;;17.76;63.78
31299;BME280;17927;52.350;13.402;2022-10-17T05:25:14;101776.16;;;17.76;63.59
31299;BME280;17927;52.350;13.402;2022-10-17T05:27:39;101777.00;;;17.76;63.71
31299;BME280;17927;52.350;13.402;2022-10-17T05:30:05;101777.19;;;17.75;63.80
31299;BME280;17927;52.350;13.402;2022-10-17T05:32:31;101770.88;;;17.74;63.99
31299;BME280;17927;52.350;13.402;2022-10-17T05:34:56;101774.47;;;17.75;63.65
31299;BME280;17927;52.350;13.402;2022-10-17T05:37:21;101774.63;;;17.73;63.69
31299;BME280;17927;52.350;13.402;2022-10-17T05:39:46;101773.94;;;17.71;64.10
31299;BME280;17927;52.350;13.402;2022-10-17T05:42:12;101771.22;;;17.71;64.00
31299;BME280;17927;52.350;13.402;2022-10-17T05:44:37;101765.88;;;17.70;64.12
31299;BME280;17927;52.350;13.402;2022-10-17T05:47:03;101766.75;;;17.70;63.94
31299;BME280;17927;52.350;13.402;2022-10-17T05:49:29;101761.13;;;17.72;64.23
31299;BME280;17927;52.350;13.402;2022-10-17T05:51:54;101770.19;;;17.72;64.10
31299;BME280;17927;52.350;13.402;2022-10-17T05:54:19;101770.19;;;17.72;64.20
31299;BME280;17927;52.350;13.402;2022-10-17T05:56:44;101784.53;;;17.74;64.38
31299;BME280;17927;52.350;13.402;2022-10-17T05:59:09;101780.94;;;17.74;64.33
31299;BME280;17927;52.350;13.402;2022-10-17T06:01:35;101779.75;;;17.76;64.50
31299;BME280;17927;52.350;13.402;2022-10-17T06:04:00;101794.97;;;17.79;64.44
31299;BME280;17927;52.350;13.402;2022-10-17T06:06:25;101795.66;;;17.81;64.48
31299;BME280;17927;52.350;13.402;2022-10-17T06:08:50;101796.31;;;17.83;64.54
31299;BME280;17927;52.350;13.402;2022-10-17T06:11:16;101800.63;;;17.86;64.62
31299;BME280;17927;52.350;13.402;2022-10-17T06:13:41;101802.16;;;17.88;64.68
31299;BME280;17927;52.350;13.402;2022-10-17T06:16:06;101806.28;;;17.92;64.64
31299;BME280;17927;52.350;13.402;2022-10-17T06:18:32;101811.44;;;17.95;64.43
31299;BME280;17927;52.350;13.402;2022-10-17T06:21:04;101817.25;;;18.01;64.53
31299;BME280;17927;52.350;13.402;2022-10-17T06:23:31;101812.34;;;18.04;64.34
31299;BME280;17927;52.350;13.402;2022-10-17T06:26:00;101810.97;;;18.08;64.40
31299;BME280;17927;52.350;13.402;2022-10-17T06:28:25;101819.84;;;18.10;64.43
31299;BME280;17927;52.350;13.402;2022-10-17T06:30:51;101840.56;;;18.13;64.71
31299;BME280;17927;52.350;13.402;2022-10-17T06:33:16;101830.28;;;18.15;64.71
31299;BME280;17927;52.350;13.402;2022-10-17T06:35:42;101827.41;;;18.17;64.85
31299;BME280;17927;52.350;13.402;2022-10-17T06:38:07;101838.84;;;18.20;64.83
31299;BME280;17927;52.350;13.402;2022-10-17T06:40:32;101836.63;;;18.24;64.54
31299;BME280;17927;52.350;13.402;2022-10-17T06:42:57;101839.91;;;18.28;64.61
31299;BME280;17927;52.350;13.402;2022-10-17T06:45:23;101841.13;;;18.33;64.81
31299;BME280;17927;52.350;13.402;2022-10-17T06:47:48;101843.00;;;18.41;65.03
31299;BME280;17927;52.350;13.402;2022-10-17T06:50:14;101845.03;;;18.47;64.84
31299;BME280;17927;52.350;13.402;2022-10-17T06:52:39;101838.91;;;18.53;64.60
31299;BME280;17927;52.350;13.402;2022-10-17T06:55:05;101838.41;;;18.58;64.52
31299;BME280;17927;52.350;13.402;2022-10-17T06:57:30;101837.03;;;18.62;64.50
31299;BME280;17927;52.350;13.402;2022-10-17T06:59:55;101841.31;;;18.65;64.84
31299;BME280;17927;52.350;13.402;2022-10-17T07:02:21;101839.94;;;18.69;64.82
31299;BME280;17927;52.350;13.402;2022-10-17T07:04:48;101836.88;;;18.72;64.69
31299;BME280;17927;52.350;13.402;2022-10-17T07:07:13;101839.28;;;18.75;64.78
31299;BME280;17927;52.350;13.402;2022-10-17T07:09:38;101845.94;;;18.81;64.71
31299;BME280;17927;52.350;13.402;2022-10-17T07:12:04;101845.25;;;18.87;64.75
31299;BME280;17927;52.350;13.402;2022-10-17T07:14:32;101841.69;;;18.95;64.91
31299;BME280;17927;52.350;13.402;2022-10-17T07:16:58;101844.56;;;19.01;64.98
31299;BME280;17927;52.350;13.402;2022-10-17T07:19:23;101841.16;;;19.08;64.78
31299;BME280;17927;52.350;13.402;2022-10-17T07:21:49;101846.28;;;19.11;64.70
31299;BME280;17927;52.350;13.402;2022-10-17T07:24:14;101854.81;;;19.16;64.29
31299;BME280;17927;52.350;13.402;2022-10-17T07:26:39;101845.25;;;19.20;64.21
31299;BME280;17927;52.350;13.402;2022-10-17T07:29:04;101847.47;;;19.25;64.59
31299;BME280;17927;52.350;13.402;2022-10-17T07:31:31;101852.06;;;19.32;64.27
31299;BME280;17927;52.350;13.402;2022-10-17T07:33:58;101851.19;;;19.40;64.63
31299;BME280;17927;52.350;13.402;2022-10-17T07:36:24;101860.25;;;19.49;64.23
31299;BME280;17927;52.350;13.402;2022-10-17T07:38:49;101855.59;;;19.58;64.57
31299;BME280;17927;52.350;13.402;2022-10-17T07:41:14;101862.78;;;19.67;64.42
31299;BME280;17927;52.350;13.402;2022-10-17T07:43:39;101858.78;;;19.78;64.16
31299;BME280;17927;52.350;13.402;2022-10-17T07:46:07;101861.34;;;19.88;63.81
31299;BME280;17927;52.350;13.402;2022-10-17T07:48:33;101858.22;;;19.99;63.72
31299;BME280;17927;52.350;13.402;2022-10-17T07:51:04;101861.59;;;20.10;63.83
31299;BME280;17927;52.350;13.402;2022-10-17T07:53:30;101861.38;;;20.19;63.48
31299;BME280;17927;52.350;13.402;2022-10-17T07:55:55;101866.63;;;20.29;63.29
31299;BME280;17927;52.350;13.402;2022-10-17T07:58:20;101862.59;;;20.40;63.17
31299;BME280;17927;52.350;13.402;2022-10-17T08:00:45;101862.38;;;20.50;63.10
31299;BME280;17927;52.350;13.402;2022-10-17T08:03:15;101864.88;;;20.60;63.02
31299;BME280;17927;52.350;13.402;2022-10-17T08:05:40;101862.91;;;20.68;62.81
31299;BME280;17927;52.350;13.402;2022-10-17T08:08:05;101862.91;;;20.77;62.76
31299;BME280;17927;52.350;13.402;2022-10-17T08:10:31;101865.56;;;20.85;62.60
31299;BME280;17927;52.350;13.402;2022-10-17T08:12:56;101861.69;;;20.94;62.36
31299;BME280;17927;52.350;13.402;2022-10-17T08:15:23;101864.03;;;21.06;62.29
31299;BME280;17927;52.350;13.402;2022-10-17T08:17:49;101861.84;;;21.16;62.21
31299;BME280;17927;52.350;13.402;2022-10-17T08:20:14;101862.44;;;21.26;62.27
31299;BME280;17927;52.350;13.402;2022-10-17T08:22:40;101862.16;;;21.36;62.18
31299;BME280;17927;52.350;13.402;2022-10-17T08:25:05;101862.94;;;21.45;61.85
31299;BME280;17927;52.350;13.402;2022-10-17T08:27:32;101869.03;;;21.55;61.34
31299;BME280;17927;52.350;13.402;2022-10-17T08:29:57;101863.81;;;21.60;61.28
31299;BME280;17927;52.350;13.402;2022-10-17T08:32:27;101872.00;;;21.69;60.73
31299;BME280;17927;52.350;13.402;2022-10-17T08:34:54;101863.81;;;21.75;61.04
31299;BME280;17927;52.350;13.402;2022-10-17T08:37:20;101860.97;;;21.84;60.59
31299;BME280;17927;52.350;13.402;2022-10-17T08:39:45;101860.00;;;21.92;60.52
31299;BME280;17927;52.350;13.402;2022-10-17T08:42:37;101858.88;;;22.01;60.06
31299;BME280;17927;52.350;13.402;2022-10-17T08:48:00;101861.56;;;22.16;60.25
31299;BME280;17927;52.350;13.402;2022-10-17T08:50:39;101851.31;;;22.25;59.89
31299;BME280;17927;52.350;13.402;2022-10-17T08:53:24;101854.56;;;22.35;59.65
31299;BME280;17927;52.350;13.402;2022-10-17T08:55:52;101839.69;;;22.44;60.03
31299;BME280;17927;52.350;13.402;2022-10-17T08:58:27;101853.59;;;22.58;59.26
31299;BME280;17927;52.350;13.402;2022-10-17T09:07:05;101854.81;;;22.77;58.52
31299;BME280;17927;52.350;13.402;2022-10-17T09:09:55;101858.28;;;22.86;58.56
31299;BME280;17927;52.350;13.402;2022-10-17T09:12:29;101861.97;;;22.93;58.06
31299;BME280;17927;52.350;13.402;2022-10-17T09:15:40;101856.13;;;23.03;58.01
31299;BME280;17927;52.350;13.402;2022-10-17T09:18:30;101848.97;;;23.08;57.98
31299;BME280;17927;52.350;13.402;2022-10-17T09:21:38;101843.28;;;23.17;57.35
31299;BME280;17927;52.350;13.402;2022-10-17T09:24:11;101844.81;;;23.19;57.66
31299;BME280;17927;52.350;13.402;2022-10-17T09:26:38;101846.38;;;23.29;57.30
31299;BME280;17927;52.350;13.402;2022-10-17T09:29:13;101840.69;;;23.37;57.09
31299;BME280;17927;52.350;13.402;2022-10-17T09:31:43;101847.94;;;23.45;56.83
31299;BME280;17927;52.350;13.402;2022-10-17T09:34:09;101850.94;;;23.50;56.38
31299;BME280;17927;52.350;13.402;2022-10-17T09:36:37;101846.53;;;23.55;56.21
31299;BME280;17927;52.350;13.402;2022-10-17T09:39:08;101843.81;;;23.62;56.10
31299;BME280;17927;52.350;13.402;2022-10-17T09:41:42;101838.13;;;23.70;55.76
31299;BME280;17927;52.350;13.402;2022-10-17T09:47:11;101836.91;;;23.86;55.26
31299;BME280;17927;52.350;13.402;2022-10-17T09:49:41;101837.81;;;23.94;55.22
31299;BME280;17927;52.350;13.402;2022-10-17T09:54:43;101847.47;;;24.11;54.49
31299;BME280;17927;52.350;13.402;2022-10-17T09:57:11;101834.53;;;24.18;54.79
31299;BME280;17927;52.350;13.402;2022-10-17T09:59:39;101833.47;;;24.26;54.50
31299;BME280;17927;52.350;13.402;2022-10-17T10:02:19;101828.41;;;24.37;53.69
31299;BME280;17927;52.350;13.402;2022-10-17T10:05:05;101837.78;;;24.42;53.88
31299;BME280;17927;52.350;13.402;2022-10-17T10:07:39;101824.63;;;24.51;53.88
31299;BME280;17927;52.350;13.402;2022-10-17T10:10:07;101831.63;;;24.60;53.68
31299;BME280;17927;52.350;13.402;2022-10-17T10:13:05;101831.66;;;24.74;53.57
31299;BME280;17927;52.350;13.402;2022-10-17T10:15:38;101830.41;;;24.83;53.73
31299;BME280;17927;52.350;13.402;2022-10-17T10:21:05;101834.63;;;25.06;52.77
31299;BME280;17927;52.350;13.402;2022-10-17T10:23:31;101833.34;;;25.15;53.10
31299;BME280;17927;52.350;13.402;2022-10-17T10:25:58;101830.78;;;25.27;52.09
31299;BME280;17927;52.350;13.402;2022-10-17T10:28:28;101829.69;;;25.35;51.33
31299;BME280;17927;52.350;13.402;2022-10-17T10:30:56;101832.47;;;25.42;51.08
31299;BME280;17927;52.350;13.402;2022-10-17T10:33:26;101834.59;;;25.46;50.86
31299;BME280;17927;52.350;13.402;2022-10-17T10:35:58;101839.50;;;25.51;51.04
31299;BME280;17927;52.350;13.402;2022-10-17T10:38:26;101824.38;;;25.53;50.73
31299;BME280;17927;52.350;13.402;2022-10-17T10:41:00;101833.69;;;25.59;50.17
31299;BME280;17927;52.350;13.402;2022-10-17T10:43:42;101828.38;;;25.64;50.30
31299;BME280;17927;52.350;13.402;2022-10-17T10:46:19;101823.00;;;25.69;49.90
31299;BME280;17927;52.350;13.402;2022-10-17T10:48:59;101822.56;;;25.79;49.80
31299;BME280;17927;52.350;13.402;2022-10-17T10:51:41;101830.00;;;25.86;49.91
31299;BME280;17927;52.350;13.402;2022-10-17T10:54:13;101825.69;;;25.96;49.99
31299;BME280;17927;52.350;13.402;2022-10-17T10:56:46;101824.16;;;26.07;49.78
31299;BME280;17927;52.350;13.402;2022-10-17T10:59:17;101829.22;;;26.17;49.18
31299;BME280;17927;52.350;13.402;2022-10-17T11:01:50;101812.56;;;26.24;49.08
31299;BME280;17927;52.350;13.402;2022-10-17T11:04:25;101826.78;;;26.34;49.55
31299;BME280;17927;52.350;13.402;2022-10-17T11:06:54;101826.50;;;26.42;50.08
31299;BME280;17927;52.350;13.402;2022-10-17T11:09:30;101825.81;;;26.54;49.94
31299;BME280;17927;52.350;13.402;2022-10-17T11:12:00;101819.28;;;26.67;49.28
31299;BME280;17927;52.350;13.402;2022-10-17T11:14:33;101823.72;;;26.74;49.31
31299;BME280;17927;52.350;13.402;2022-10-17T11:17:04;101816.63;;;26.85;49.51
31299;BME280;17927;52.350;13.402;2022-10-17T11:19:37;101815.66;;;26.98;49.41
31299;BME280;17927;52.350;13.402;2022-10-17T11:22:23;101808.03;;;27.12;49.39
31299;BME280;17927;52.350;13.402;2022-10-17T11:25:03;101797.91;;;27.25;48.96
31299;BME280;17927;52.350;13.402;2022-10-17T11:27:29;101797.75;;;27.38;48.81
31299;BME280;17927;52.350;13.402;2022-10-17T11:29:56;101797.84;;;27.50;48.81
31299;BME280;17927;52.350;13.402;2022-10-17T11:32:38;101791.53;;;27.61;48.12
31299;BME280;17927;52.350;13.402;2022-10-17T11:35:16;101802.94;;;27.72;47.97
31299;BME280;17927;52.350;13.402;2022-10-17T11:37:48;101792.72;;;27.84;47.81
31299;BME280;17927;52.350;13.402;2022-10-17T11:40:26;101796.19;;;27.98;47.11
31299;BME280;17927;52.350;13.402;2022-10-17T11:42:58;101800.09;;;28.09;47.08
31299;BME280;17927;52.350;13.402;2022-10-17T11:45:26;101785.88;;;28.17;47.42
31299;BME280;17927;52.350;13.402;2022-10-17T11:48:01;101792.31;;;28.30;46.27
31299;BME280;17927;52.350;13.402;2022-10-17T11:50:39;101791.53;;;28.41;46.15
31299;BME280;17927;52.350;13.402;2022-10-17T11:53:21;101783.44;;;28.51;46.06
31299;BME280;17927;52.350;13.402;2022-10-17T11:55:49;101786.47;;;28.62;45.76
31299;BME280;17927;52.350;13.402;2022-10-17T11:58:34;101786.72;;;28.72;45.69
31299;BME280;17927;52.350;13.402;2022-10-17T12:01:23;101782.78;;;28.80;44.79
31299;BME280;17927;52.350;13.402;2022-10-17T12:11:57;101774.16;;;29.29;44.07
31299;BME280;17927;52.350;13.402;2022-10-17T12:17:05;101776.81;;;29.47;44.11
31299;BME280;17927;52.350;13.402;2022-10-17T12:19:44;101777.50;;;29.55;44.29
31299;BME280;17927;52.350;13.402;2022-10-17T12:22:23;101778.31;;;29.67;43.29
31299;BME280;17927;52.350;13.402;2022-10-17T12:25:02;101771.28;;;29.76;43.51
31299;BME280;17927;52.350;13.402;2022-10-17T12:27:37;101771.09;;;29.95;42.75
31299;BME280;17927;52.350;13.402;2022-10-17T12:30:16;101767.50;;;30.12;42.14
31299;BME280;17927;52.350;13.402;2022-10-17T12:32:57;101769.38;;;30.23;41.70
31299;BME280;17927;52.350;13.402;2022-10-17T12:35:24;101769.31;;;30.35;42.24
31299;BME280;17927;52.350;13.402;2022-10-17T12:42:59;101778.88;;;30.73;40.84
31299;BME280;17927;52.350;13.402;2022-10-17T12:48:09;101767.38;;;30.87;39.52
31299;BME280;17927;52.350;13.402;2022-10-17T12:51:09;101766.59;;;30.91;39.61
31299;BME280;17927;52.350;13.402;2022-10-17T12:56:15;101765.75;;;30.91;38.92
31299;BME280;17927;52.350;13.402;2022-10-17T12:58:43;101768.38;;;30.97;39.19
31299;BME280;17927;52.350;13.402;2022-10-17T13:01:16;101766.25;;;31.05;38.64
31299;BME280;17927;52.350;13.402;2022-10-17T13:03:46;101766.56;;;31.08;38.58
31299;BME280;17927;52.350;13.402;2022-10-17T13:06:18;101766.41;;;31.15;38.49
31299;BME280;17927;52.350;13.402;2022-10-17T13:08:57;101770.13;;;31.21;38.27
31299;BME280;17927;52.350;13.402;2022-10-17T13:11:26;101749.22;;;31.23;38.52
31299;BME280;17927;52.350;13.402;2022-10-17T13:13:55;101748.69;;;31.26;38.02
31299;BME280;17927;52.350;13.402;2022-10-17T13:16:38;101759.34;;;31.29;37.85
31299;BME280;17927;52.350;13.402;2022-10-17T13:19:12;101753.19;;;31.27;37.78
31299;BME280;17927;52.350;13.402;2022-10-17T13:21:37;101753.69;;;31.24;37.47
31299;BME280;17927;52.350;13.402;2022-10-17T13:24:31;101752.06;;;31.28;36.80
31299;BME280;17927;52.350;13.402;2022-10-17T13:26:57;101746.81;;;31.32;37.86
31299;BME280;17927;52.350;13.402;2022-10-17T13:29:23;101760.06;;;31.42;36.85
31299;BME280;17927;52.350;13.402;2022-10-17T13:32:00;101764.34;;;31.50;36.76
31299;BME280;17927;52.350;13.402;2022-10-17T13:34:27;101757.34;;;31.47;36.83
31299;BME280;17927;52.350;13.402;2022-10-17T13:36:54;101756.47;;;31.47;36.55
31299;BME280;17927;52.350;13.402;2022-10-17T13:39:28;101763.50;;;31.49;35.59
31299;BME280;17927;52.350;13.402;2022-10-17T13:41:55;101759.34;;;31.52;35.99
31299;BME280;17927;52.350;13.402;2022-10-17T13:44:27;101764.13;;;31.56;35.79